Time;durP1;ratioP1;P1;durP2;ratioP2;P2;SDS_P1;SDS_P2;PMS_P1;PMS_P2;Temp;Humidity;BMP_temperature;BMP_pressure;BME280_temperature;BME280_humidity;BME280_pressure;Samples;Min_cycle;Max_cycle;Signal;HPM_P1;HPM_P2
2022/09/09 00:00:49;;;;;;;6.25;2.63;;;;;;;;;;5027494;28;20277;-65
2022/09/09 00:03:19;;;;;;;4.95;2.80;;;;;;;;;;5023227;28;20650;-65
2022/09/09 00:06:02;;;;;;;5.45;2.70;;;;;;;;;;5021088;28;20301;-65
2022/09/09 00:09:08;;;;;;;7.72;3.60;;;;;;;;;;5028245;28;20204;-65
2022/09/09 00:11:57;;;;;;;9.52;2.75;;;;;;;;;;5027617;28;20174;-65
2022/09/09 00:14:49;;;;;;;5.95;2.90;;;;;;;;;;5021648;28;20277;-65
2022/09/09 00:17:33;;;;;;;10.05;3.78;;;;;;;;;;5017429;28;20292;-65
2022/09/09 00:20:11;;;;;;;5.38;3.05;;;;;;;;;;5028182;28;20178;-65
2022/09/09 00:22:39;;;;;;;6.22;2.88;;;;;;;;;;5022140;28;20182;-65
2022/09/09 00:25:17;;;;;;;5.65;3.22;;;;;;;;;;5025224;28;20201;-65
2022/09/09 00:27:48;;;;;;;6.30;3.53;;;;;;;;;;5025484;28;20217;-65
2022/09/09 00:30:25;;;;;;;7.60;3.20;;;;;;;;;;5027176;28;20189;-65
2022/09/09 00:33:14;;;;;;;5.15;3.10;;;;;;;;;;5023560;28;20237;-65
2022/09/09 00:35:45;;;;;;;5.72;3.38;;;;;;;;;;5013687;28;20185;-65
2022/09/09 00:38:17;;;;;;;7.25;3.50;;;;;;;;;;5019147;28;20569;-65
2022/09/09 00:41:01;;;;;;;7.55;3.40;;;;;;;;;;5027694;28;20170;-65
2022/09/09 00:43:29;;;;;;;8.75;2.65;;;;;;;;;;5024349;28;20202;-66
2022/09/09 00:45:55;;;;;;;4.82;2.50;;;;;;;;;;5027237;28;20200;-66
2022/09/09 00:48:27;;;;;;;3.45;2.42;;;;;;;;;;5027514;28;20185;-65
2022/09/09 00:51:02;;;;;;;7.72;3.47;;;;;;;;;;5027151;28;20202;-66
2022/09/09 00:53:37;;;;;;;6.22;3.30;;;;;;;;;;5021274;28;20191;-65
2022/09/09 00:56:20;;;;;;;4.38;2.75;;;;;;;;;;5012745;28;20693;-66
2022/09/09 00:59:05;;;;;;;4.43;3.10;;;;;;;;;;5014484;28;20182;-66
2022/09/09 01:01:31;;;;;;;6.82;3.25;;;;;;;;;;5023642;28;20186;-65
2022/09/09 01:04:00;;;;;;;4.75;3.38;;;;;;;;;;5026577;28;20205;-65
2022/09/09 01:06:31;;;;;;;6.35;3.38;;;;;;;;;;5008709;28;20686;-65
2022/09/09 01:09:20;;;;;;;5.78;4.05;;;;;;;;;;5024652;28;20187;-65
2022/09/09 01:12:07;;;;;;;8.48;3.97;;;;;;;;;;5012173;28;20658;-65
2022/09/09 01:14:36;;;;;;;5.43;3.85;;;;;;;;;;5020561;28;20182;-65
2022/09/09 01:17:25;;;;;;;7.38;4.35;;;;;;;;;;5025657;28;20170;-66
2022/09/09 01:19:57;;;;;;;7.10;5.13;;;;;;;;;;5025459;28;20292;-66
2022/09/09 01:22:41;;;;;;;6.50;4.85;;;;;;;;;;5027681;28;20611;-66
2022/09/09 01:25:29;;;;;;;7.57;4.90;;;;;;;;;;5027324;28;20257;-66
2022/09/09 01:27:59;;;;;;;8.18;4.78;;;;;;;;;;5011869;28;20207;-66
2022/09/09 01:30:25;;;;;;;10.75;5.30;;;;;;;;;;5028655;28;20208;-66
2022/09/09 01:32:55;;;;;;;6.70;4.93;;;;;;;;;;5027949;28;20201;-66
2022/09/09 01:35:36;;;;;;;5.80;4.85;;;;;;;;;;5030274;28;20239;-66
2022/09/09 01:38:01;;;;;;;5.13;4.50;;;;;;;;;;5023149;28;20178;-65
2022/09/09 01:40:26;;;;;;;8.40;5.30;;;;;;;;;;5028969;28;20244;-65
2022/09/09 01:42:53;;;;;;;7.53;6.53;;;;;;;;;;5028608;28;20193;-66
2022/09/09 01:45:19;;;;;;;8.95;7.00;;;;;;;;;;5030655;28;20210;-66
2022/09/09 01:47:45;;;;;;;8.55;6.13;;;;;;;;;;5027395;28;20230;-66
2022/09/09 01:50:14;;;;;;;10.00;6.78;;;;;;;;;;5024434;28;20189;-66
2022/09/09 01:52:41;;;;;;;8.05;6.50;;;;;;;;;;5026517;28;20274;-66
2022/09/09 01:55:09;;;;;;;11.32;8.05;;;;;;;;;;5029870;28;20200;-66
2022/09/09 01:58:05;;;;;;;10.60;7.85;;;;;;;;;;5028882;28;20193;-66
2022/09/09 02:00:33;;;;;;;10.52;6.95;;;;;;;;;;5023960;28;20183;-66
2022/09/09 02:03:22;;;;;;;7.80;6.63;;;;;;;;;;5023924;28;20170;-66
2022/09/09 02:06:10;;;;;;;9.43;7.65;;;;;;;;;;5024006;28;20240;-66
2022/09/09 02:08:44;;;;;;;11.65;7.80;;;;;;;;;;5029696;28;20194;-66
2022/09/09 02:11:19;;;;;;;10.85;7.43;;;;;;;;;;5027437;28;20181;-66
2022/09/09 02:13:46;;;;;;;9.45;6.82;;;;;;;;;;5025470;28;20217;-66
2022/09/09 02:16:15;;;;;;;8.05;6.28;;;;;;;;;;5030454;28;20174;-66
2022/09/09 02:18:53;;;;;;;8.65;5.47;;;;;;;;;;5026193;28;20186;-66
2022/09/09 02:21:18;;;;;;;8.02;5.88;;;;;;;;;;5018929;28;20190;-66
2022/09/09 02:23:46;;;;;;;7.22;5.03;;;;;;;;;;5021523;28;20173;-65
2022/09/09 02:26:19;;;;;;;9.35;5.45;;;;;;;;;;5030049;28;20209;-65
2022/09/09 02:28:46;;;;;;;5.95;5.22;;;;;;;;;;5019179;28;20178;-65
2022/09/09 02:31:12;;;;;;;9.77;5.65;;;;;;;;;;5018582;28;20189;-65
2022/09/09 02:33:42;;;;;;;8.40;5.38;;;;;;;;;;5025901;28;20229;-65
2022/09/09 02:36:10;;;;;;;6.40;5.70;;;;;;;;;;5028167;28;20197;-65
2022/09/09 02:38:40;;;;;;;7.60;5.97;;;;;;;;;;5027796;28;20197;-65
2022/09/09 02:41:06;;;;;;;4.97;3.67;;;;;;;;;;5023729;28;20181;-65
2022/09/09 02:43:33;;;;;;;7.57;4.70;;;;;;;;;;5024916;28;20186;-65
2022/09/09 02:46:28;;;;;;;8.40;5.10;;;;;;;;;;5013266;28;20209;-65
2022/09/09 02:48:56;;;;;;;6.55;4.57;;;;;;;;;;5024632;28;20182;-65
2022/09/09 02:51:46;;;;;;;5.68;5.05;;;;;;;;;;5024906;28;20190;-65
2022/09/09 02:54:23;;;;;;;6.38;4.95;;;;;;;;;;5026375;28;20189;-65
2022/09/09 02:56:54;;;;;;;6.07;5.15;;;;;;;;;;5029521;28;20175;-66
2022/09/09 02:59:21;;;;;;;6.53;5.18;;;;;;;;;;5023327;28;20174;-66
2022/09/09 03:01:46;;;;;;;6.35;5.47;;;;;;;;;;5017698;28;20569;-65
2022/09/09 03:04:12;;;;;;;8.00;5.63;;;;;;;;;;5025369;28;20266;-66
2022/09/09 03:06:37;;;;;;;10.07;5.95;;;;;;;;;;5027950;28;20206;-65
2022/09/09 03:09:03;;;;;;;9.70;6.35;;;;;;;;;;5025955;28;20190;-65
2022/09/09 03:11:28;;;;;;;6.82;6.15;;;;;;;;;;5019913;28;20611;-66
2022/09/09 03:13:55;;;;;;;7.57;6.30;;;;;;;;;;5026738;28;20193;-66
2022/09/09 03:16:24;;;;;;;6.65;5.97;;;;;;;;;;5025099;28;20185;-66
2022/09/09 03:18:49;;;;;;;7.40;5.85;;;;;;;;;;5009809;28;20186;-65
2022/09/09 03:21:15;;;;;;;8.27;6.97;;;;;;;;;;5023524;28;20699;-66
2022/09/09 03:23:40;;;;;;;11.13;6.55;;;;;;;;;;5027575;28;20217;-66
2022/09/09 03:26:06;;;;;;;8.93;6.47;;;;;;;;;;5028381;28;20629;-65
2022/09/09 03:28:32;;;;;;;8.75;5.68;;;;;;;;;;5017514;28;20182;-65
2022/09/09 03:31:02;;;;;;;8.95;6.30;;;;;;;;;;5023495;28;20563;-65
2022/09/09 03:33:29;;;;;;;10.27;6.18;;;;;;;;;;5018547;28;20179;-65
2022/09/09 03:35:56;;;;;;;8.25;5.80;;;;;;;;;;5027845;28;20659;-65
2022/09/09 03:38:24;;;;;;;7.72;5.85;;;;;;;;;;5015194;28;20320;-66
2022/09/09 03:40:55;;;;;;;10.48;6.28;;;;;;;;;;5026303;28;20616;-65
2022/09/09 03:43:21;;;;;;;8.90;5.45;;;;;;;;;;5020273;28;20194;-66
2022/09/09 03:45:47;;;;;;;7.22;5.72;;;;;;;;;;5020512;28;20301;-66
2022/09/09 03:48:13;;;;;;;6.53;5.53;;;;;;;;;;5011879;28;20265;-66
2022/09/09 03:50:38;;;;;;;7.30;5.70;;;;;;;;;;5016019;28;20186;-66
2022/09/09 03:53:05;;;;;;;7.13;5.57;;;;;;;;;;5026441;28;20177;-66
2022/09/09 03:55:31;;;;;;;7.10;5.88;;;;;;;;;;5027911;28;20186;-66
2022/09/09 03:57:56;;;;;;;8.07;5.55;;;;;;;;;;5021262;28;20580;-66
2022/09/09 04:00:21;;;;;;;5.18;4.53;;;;;;;;;;5022432;28;20185;-66
2022/09/09 04:02:47;;;;;;;5.93;4.78;;;;;;;;;;5023408;28;20557;-66
2022/09/09 04:05:13;;;;;;;7.10;5.65;;;;;;;;;;5019283;28;20768;-66
2022/09/09 04:07:38;;;;;;;6.30;4.88;;;;;;;;;;5025162;28;20222;-66
2022/09/09 04:10:04;;;;;;;6.63;5.22;;;;;;;;;;5020799;28;20189;-66
2022/09/09 04:12:29;;;;;;;5.82;4.80;;;;;;;;;;5022051;28;20193;-66
2022/09/09 04:14:55;;;;;;;7.00;5.22;;;;;;;;;;5023176;28;20186;-66
2022/09/09 04:17:20;;;;;;;6.65;4.40;;;;;;;;;;5026746;28;20178;-66
2022/09/09 04:19:46;;;;;;;8.63;5.35;;;;;;;;;;5020386;28;20186;-66
2022/09/09 04:22:11;;;;;;;8.73;5.20;;;;;;;;;;5019684;28;20518;-66
2022/09/09 04:24:37;;;;;;;6.85;5.20;;;;;;;;;;5021219;28;20518;-66
2022/09/09 04:27:02;;;;;;;10.70;5.70;;;;;;;;;;5027882;28;20280;-66
2022/09/09 04:29:27;;;;;;;6.35;5.65;;;;;;;;;;5024419;28;20206;-66
2022/09/09 04:31:53;;;;;;;8.95;5.75;;;;;;;;;;5027924;28;20198;-66
2022/09/09 04:34:18;;;;;;;8.50;5.93;;;;;;;;;;5023840;28;20186;-66
2022/09/09 04:36:43;;;;;;;10.27;6.57;;;;;;;;;;5027515;28;20386;-66
2022/09/09 04:39:09;;;;;;;6.25;5.55;;;;;;;;;;5020218;28;20182;-66
2022/09/09 04:41:34;;;;;;;8.60;6.25;;;;;;;;;;5024292;28;20217;-66
2022/09/09 04:44:00;;;;;;;11.43;5.88;;;;;;;;;;5019786;28;20190;-66
2022/09/09 04:46:26;;;;;;;10.40;6.38;;;;;;;;;;5020402;28;20559;-66
2022/09/09 04:48:52;;;;;;;8.57;5.88;;;;;;;;;;5018590;28;20206;-66
2022/09/09 04:51:18;;;;;;;10.27;6.47;;;;;;;;;;5011786;28;20201;-66
2022/09/09 04:53:43;;;;;;;9.23;6.07;;;;;;;;;;5023338;28;20193;-66
2022/09/09 04:56:16;;;;;;;9.40;6.43;;;;;;;;;;5022736;28;20265;-66
2022/09/09 04:58:42;;;;;;;10.07;6.82;;;;;;;;;;5028114;28;20489;-66
2022/09/09 05:01:21;;;;;;;9.48;6.70;;;;;;;;;;5026463;28;20174;-66
2022/09/09 05:03:47;;;;;;;9.00;6.07;;;;;;;;;;5029118;28;20185;-66
2022/09/09 05:06:15;;;;;;;10.20;6.85;;;;;;;;;;5026432;28;20221;-66
2022/09/09 05:08:42;;;;;;;12.77;7.53;;;;;;;;;;5022614;28;20206;-66
2022/09/09 05:11:25;;;;;;;11.32;7.10;;;;;;;;;;5029716;28;20650;-66
2022/09/09 05:13:52;;;;;;;15.95;7.32;;;;;;;;;;5030158;28;20347;-66
2022/09/09 05:16:19;;;;;;;8.55;6.60;;;;;;;;;;5031018;28;20178;-66
2022/09/09 05:18:45;;;;;;;9.65;6.38;;;;;;;;;;5030977;28;20177;-66
2022/09/09 05:21:12;;;;;;;11.20;6.70;;;;;;;;;;5028260;28;20194;-67
2022/09/09 05:23:38;;;;;;;11.75;6.38;;;;;;;;;;5025311;28;20186;-66
2022/09/09 05:26:04;;;;;;;7.68;6.30;;;;;;;;;;5025043;28;20461;-66
2022/09/09 05:28:30;;;;;;;11.27;6.20;;;;;;;;;;5025121;28;20858;-66
2022/09/09 05:31:12;;;;;;;10.75;5.95;;;;;;;;;;5027348;28;20223;-66
2022/09/09 05:33:40;;;;;;;9.70;6.10;;;;;;;;;;5028376;28;20261;-66
2022/09/09 05:36:08;;;;;;;8.88;5.35;;;;;;;;;;5027966;28;20638;-66
2022/09/09 05:38:34;;;;;;;8.50;5.30;;;;;;;;;;5029170;28;20182;-66
2022/09/09 05:41:02;;;;;;;14.65;5.25;;;;;;;;;;5029724;28;20544;-66
2022/09/09 05:43:29;;;;;;;12.48;5.28;;;;;;;;;;5030594;28;20178;-66
2022/09/09 05:46:04;;;;;;;8.45;5.55;;;;;;;;;;5028351;28;20182;-65
2022/09/09 05:48:31;;;;;;;10.15;5.55;;;;;;;;;;5027602;28;20232;-66
2022/09/09 05:50:57;;;;;;;7.88;5.20;;;;;;;;;;5020896;28;20190;-65
2022/09/09 05:53:23;;;;;;;11.05;5.05;;;;;;;;;;5030284;28;20665;-66
2022/09/09 05:55:48;;;;;;;10.02;5.18;;;;;;;;;;5027239;28;20179;-66
2022/09/09 05:58:16;;;;;;;11.45;5.55;;;;;;;;;;5022350;28;20190;-66
2022/09/09 06:00:43;;;;;;;8.63;4.07;;;;;;;;;;5018712;28;20182;-66
2022/09/09 06:03:11;;;;;;;8.68;4.70;;;;;;;;;;5028562;28;20268;-65
2022/09/09 06:05:36;;;;;;;10.25;5.10;;;;;;;;;;5043346;28;20328;-66
2022/09/09 06:08:01;;;;;;;20.92;6.43;;;;;;;;;;5038918;28;20755;-65
2022/09/09 06:10:28;;;;;;;7.25;4.50;;;;;;;;;;5033759;28;20206;-65
2022/09/09 06:12:53;;;;;;;9.02;4.55;;;;;;;;;;5027352;28;20193;-66
2022/09/09 06:15:18;;;;;;;6.13;3.75;;;;;;;;;;5018796;28;20183;-66
2022/09/09 06:17:45;;;;;;;7.25;4.43;;;;;;;;;;5023007;28;20178;-66
2022/09/09 06:20:10;;;;;;;9.02;5.05;;;;;;;;;;5024915;28;20415;-65
2022/09/09 06:22:36;;;;;;;9.20;4.90;;;;;;;;;;5023662;28;20191;-66
2022/09/09 06:25:01;;;;;;;11.55;5.32;;;;;;;;;;5026208;28;20189;-65
2022/09/09 06:27:27;;;;;;;6.07;4.47;;;;;;;;;;5026747;28;20210;-65
2022/09/09 06:29:52;;;;;;;8.63;4.60;;;;;;;;;;5026393;28;20182;-66
2022/09/09 06:32:18;;;;;;;8.27;4.57;;;;;;;;;;5024402;28;20199;-65
2022/09/09 06:34:43;;;;;;;7.60;4.45;;;;;;;;;;5029218;28;20169;-65
2022/09/09 06:37:09;;;;;;;12.13;4.95;;;;;;;;;;5022102;28;20241;-65
2022/09/09 06:39:34;;;;;;;8.40;4.20;;;;;;;;;;5018253;28;20178;-65
2022/09/09 06:41:59;;;;;;;7.07;4.57;;;;;;;;;;5028578;28;20177;-66
2022/09/09 06:44:26;;;;;;;6.30;3.67;;;;;;;;;;5025593;28;20182;-67
2022/09/09 06:46:52;;;;;;;9.45;4.05;;;;;;;;;;5030210;28;20401;-65
2022/09/09 06:49:17;;;;;;;9.25;3.95;;;;;;;;;;5017133;28;20612;-66
2022/09/09 06:51:43;;;;;;;9.82;4.25;;;;;;;;;;5028623;28;20186;-66
2022/09/09 06:54:11;;;;;;;9.25;4.03;;;;;;;;;;5022770;28;20190;-66
2022/09/09 06:56:40;;;;;;;9.02;3.95;;;;;;;;;;5029203;28;20533;-65
2022/09/09 06:59:08;;;;;;;7.38;3.47;;;;;;;;;;5025854;28;20232;-65
2022/09/09 07:01:40;;;;;;;8.55;4.25;;;;;;;;;;5027009;28;20186;-66
2022/09/09 07:04:07;;;;;;;10.23;4.25;;;;;;;;;;5027329;28;20673;-66
2022/09/09 07:06:36;;;;;;;8.93;4.60;;;;;;;;;;5018722;28;20558;-66
2022/09/09 07:09:06;;;;;;;6.32;3.58;;;;;;;;;;5028002;28;20634;-65
2022/09/09 07:11:37;;;;;;;7.35;3.63;;;;;;;;;;5025955;28;20186;-66
2022/09/09 07:14:02;;;;;;;9.65;4.05;;;;;;;;;;5028379;28;20186;-66
2022/09/09 07:16:29;;;;;;;7.82;3.17;;;;;;;;;;5022829;28;20170;-66
2022/09/09 07:19:03;;;;;;;8.38;3.42;;;;;;;;;;5027433;28;20186;-66
2022/09/09 07:21:30;;;;;;;10.43;3.50;;;;;;;;;;5026573;28;20668;-66
2022/09/09 07:23:56;;;;;;;8.23;3.20;;;;;;;;;;5027831;28;20237;-65
2022/09/09 07:26:23;;;;;;;8.68;3.33;;;;;;;;;;5026539;28;20209;-66
2022/09/09 07:28:49;;;;;;;6.35;3.00;;;;;;;;;;5028598;28;20264;-65
2022/09/09 07:31:23;;;;;;;6.20;2.80;;;;;;;;;;5025780;28;20293;-65
2022/09/09 07:33:49;;;;;;;9.38;3.10;;;;;;;;;;5028714;28;20596;-66
2022/09/09 07:36:17;;;;;;;7.82;3.83;;;;;;;;;;5027982;28;20193;-65
2022/09/09 07:38:51;;;;;;;4.70;2.90;;;;;;;;;;5024875;28;20265;-65
2022/09/09 07:41:22;;;;;;;10.50;3.80;;;;;;;;;;5031140;28;20209;-66
2022/09/09 07:43:49;;;;;;;9.80;3.30;;;;;;;;;;5023824;28;20257;-66
2022/09/09 07:46:16;;;;;;;8.80;3.25;;;;;;;;;;5027458;28;20694;-66
2022/09/09 07:48:51;;;;;;;9.25;2.70;;;;;;;;;;5026766;28;20186;-66
2022/09/09 07:51:19;;;;;;;9.45;3.10;;;;;;;;;;5025714;28;20326;-66
2022/09/09 07:53:46;;;;;;;10.38;3.35;;;;;;;;;;5027460;28;20174;-66
2022/09/09 07:56:16;;;;;;;7.82;2.95;;;;;;;;;;5024843;28;20185;-66
2022/09/09 07:58:44;;;;;;;9.88;2.67;;;;;;;;;;5028059;28;20290;-67
2022/09/09 08:01:31;;;;;;;7.95;2.30;;;;;;;;;;5026656;28;20186;-69
2022/09/09 08:04:02;;;;;;;7.57;2.70;;;;;;;;;;5027534;28;20489;-66
2022/09/09 08:06:30;;;;;;;6.43;2.10;;;;;;;;;;5025288;28;20281;-66
2022/09/09 08:08:55;;;;;;;7.28;2.45;;;;;;;;;;5028333;28;20650;-77
2022/09/09 08:11:25;;;;;;;6.63;2.70;;;;;;;;;;5024876;28;20315;-66
2022/09/09 08:13:51;;;;;;;6.03;2.50;;;;;;;;;;5026878;28;20208;-66
2022/09/09 08:16:22;;;;;;;8.85;2.80;;;;;;;;;;5026613;28;20212;-66
2022/09/09 08:18:49;;;;;;;8.60;2.47;;;;;;;;;;5025583;28;20181;-66
2022/09/09 08:21:21;;;;;;;5.72;2.50;;;;;;;;;;5026686;28;20197;-66
2022/09/09 08:23:47;;;;;;;9.70;2.60;;;;;;;;;;5026488;28;20174;-66
2022/09/09 08:26:15;;;;;;;6.78;2.25;;;;;;;;;;5024242;28;21555;-66
2022/09/09 08:28:42;;;;;;;11.82;2.60;;;;;;;;;;5027105;28;20513;-65
2022/09/09 08:31:09;;;;;;;10.27;2.25;;;;;;;;;;5027468;28;20186;-66
2022/09/09 08:33:36;;;;;;;8.35;2.28;;;;;;;;;;5027687;28;20166;-66
2022/09/09 08:36:01;;;;;;;9.45;2.67;;;;;;;;;;5019070;28;20195;-66
2022/09/09 08:38:28;;;;;;;7.82;2.75;;;;;;;;;;5023318;28;20236;-66
2022/09/09 08:41:15;;;;;;;7.90;1.90;;;;;;;;;;5029886;28;20185;-66
2022/09/09 08:43:43;;;;;;;8.68;2.80;;;;;;;;;;5026614;28;20178;-66
2022/09/09 08:46:43;;;;;;;10.43;2.08;;;;;;;;;;5027138;28;20604;-66
2022/09/09 08:49:36;;;;;;;7.30;1.90;;;;;;;;;;5026883;28;20197;-75
2022/09/09 08:52:03;;;;;;;6.82;1.80;;;;;;;;;;5027222;28;20190;-66
2022/09/09 08:54:33;;;;;;;10.60;2.20;;;;;;;;;;5023134;28;20197;-66
2022/09/09 08:56:58;;;;;;;9.07;1.58;;;;;;;;;;5026059;28;20197;-66
2022/09/09 08:59:24;;;;;;;9.90;2.10;;;;;;;;;;5026497;28;20475;-66
2022/09/09 09:02:15;;;;;;;8.40;1.70;;;;;;;;;;5027288;28;20632;-66
2022/09/09 09:05:07;;;;;;;10.20;1.90;;;;;;;;;;5027311;28;20461;-66
2022/09/09 09:08:12;;;;;;;9.18;2.10;;;;;;;;;;5026366;28;20198;-66
2022/09/09 09:10:46;;;;;;;7.82;1.60;;;;;;;;;;5025024;28;20273;-67
2022/09/09 09:13:20;;;;;;;7.38;2.58;;;;;;;;;;5026431;28;20177;-77
2022/09/09 09:15:50;;;;;;;8.98;1.75;;;;;;;;;;5022435;28;20182;-66
2022/09/09 09:18:17;;;;;;;7.47;1.70;;;;;;;;;;5026838;28;20182;-66
2022/09/09 09:21:03;;;;;;;7.28;1.40;;;;;;;;;;5026398;28;20629;-67
2022/09/09 09:23:40;;;;;;;6.65;1.70;;;;;;;;;;5025726;28;20178;-67
2022/09/09 09:26:09;;;;;;;7.05;1.55;;;;;;;;;;5026608;28;20607;-70
2022/09/09 09:28:36;;;;;;;7.50;1.50;;;;;;;;;;5008948;28;20217;-66
2022/09/09 09:31:08;;;;;;;8.10;1.60;;;;;;;;;;5021836;28;20193;-66
2022/09/09 09:33:46;;;;;;;7.20;1.63;;;;;;;;;;5025571;28;20214;-66
2022/09/09 09:36:15;;;;;;;5.15;1.48;;;;;;;;;;5023105;28;20218;-66
2022/09/09 09:38:55;;;;;;;10.07;1.92;;;;;;;;;;5028746;28;20654;-66
2022/09/09 09:41:39;;;;;;;7.40;1.52;;;;;;;;;;5031782;28;20205;-66
2022/09/09 09:44:19;;;;;;;6.47;1.70;;;;;;;;;;5029454;28;20178;-66
2022/09/09 09:46:45;;;;;;;9.20;1.73;;;;;;;;;;5028812;28;21124;-66
2022/09/09 09:49:10;;;;;;;6.53;1.38;;;;;;;;;;5029748;28;20188;-66
2022/09/09 09:51:36;;;;;;;6.72;1.60;;;;;;;;;;5029618;28;20593;-69
2022/09/09 09:54:13;;;;;;;6.18;1.50;;;;;;;;;;5029143;28;20186;-75
2022/09/09 09:56:39;;;;;;;8.73;1.55;;;;;;;;;;5019130;28;20182;-66
2022/09/09 09:59:04;;;;;;;2.65;1.10;;;;;;;;;;5026323;28;20185;-66
2022/09/09 10:01:35;;;;;;;8.00;1.65;;;;;;;;;;5020776;28;20199;-66
2022/09/09 10:04:13;;;;;;;7.85;1.80;;;;;;;;;;5025066;28;20186;-80
2022/09/09 10:06:39;;;;;;;7.50;1.75;;;;;;;;;;5021405;28;20909;-67
2022/09/09 10:09:20;;;;;;;5.20;1.13;;;;;;;;;;5024491;28;20185;-66
2022/09/09 10:11:45;;;;;;;5.53;1.10;;;;;;;;;;5019890;28;20241;-66
2022/09/09 10:14:21;;;;;;;8.75;1.40;;;;;;;;;;5024512;28;20178;-68
2022/09/09 10:17:07;;;;;;;6.15;1.30;;;;;;;;;;5021054;28;20525;-67
2022/09/09 10:19:35;;;;;;;9.88;1.80;;;;;;;;;;5029769;28;20227;-67
2022/09/09 10:22:21;;;;;;;7.10;1.40;;;;;;;;;;5025064;28;20174;-66
2022/09/09 10:25:28;;;;;;;8.07;1.40;;;;;;;;;;5029852;28;20186;-66
2022/09/09 10:27:56;;;;;;;8.30;1.55;;;;;;;;;;5016911;28;20618;-68
2022/09/09 10:30:43;;;;;;;7.35;1.60;;;;;;;;;;5030240;28;20218;-69
2022/09/09 10:33:13;;;;;;;7.38;1.73;;;;;;;;;;5030015;28;20576;-66
2022/09/09 10:35:47;;;;;;;3.60;1.20;;;;;;;;;;5029460;28;20177;-67
2022/09/09 10:38:23;;;;;;;5.07;1.40;;;;;;;;;;5028213;28;20547;-66
2022/09/09 10:41:07;;;;;;;5.78;1.50;;;;;;;;;;5023662;28;20235;-66
2022/09/09 10:44:04;;;;;;;6.82;1.30;;;;;;;;;;5029304;28;20174;-69
2022/09/09 10:46:54;;;;;;;4.75;1.55;;;;;;;;;;5020277;28;20285;-66
2022/09/09 10:49:51;;;;;;;4.90;1.40;;;;;;;;;;5029004;28;20194;-66
2022/09/09 10:52:22;;;;;;;7.25;1.35;;;;;;;;;;5018788;28;20190;-65
2022/09/09 10:54:57;;;;;;;6.20;1.33;;;;;;;;;;5029820;28;20216;-65
2022/09/09 10:57:28;;;;;;;4.97;1.23;;;;;;;;;;5028514;28;20564;-65
2022/09/09 10:59:57;;;;;;;6.85;1.30;;;;;;;;;;5029876;28;20494;-65
2022/09/09 11:02:28;;;;;;;5.82;1.27;;;;;;;;;;5014172;28;20187;-65
2022/09/09 11:04:59;;;;;;;4.10;1.23;;;;;;;;;;5018272;28;20233;-66
2022/09/09 11:07:48;;;;;;;5.93;1.20;;;;;;;;;;5015198;28;20202;-75
2022/09/09 11:10:29;;;;;;;7.13;1.40;;;;;;;;;;5016553;28;20196;-65
2022/09/09 11:13:00;;;;;;;6.80;1.67;;;;;;;;;;5025369;28;20560;-65
2022/09/09 11:15:35;;;;;;;4.20;0.98;;;;;;;;;;5030169;28;20174;-73
2022/09/09 11:18:04;;;;;;;4.82;1.65;;;;;;;;;;5027426;28;20182;-65
2022/09/09 11:20:29;;;;;;;6.00;1.30;;;;;;;;;;5026858;28;20177;-65
2022/09/09 11:23:16;;;;;;;8.30;1.42;;;;;;;;;;5026981;28;20177;-65
2022/09/09 11:25:47;;;;;;;6.90;1.40;;;;;;;;;;5027516;28;20186;-65
2022/09/09 11:28:30;;;;;;;5.82;1.30;;;;;;;;;;5029256;28;20231;-66
2022/09/09 11:31:17;;;;;;;5.55;1.20;;;;;;;;;;5020242;28;20210;-66
2022/09/09 11:34:08;;;;;;;8.95;1.52;;;;;;;;;;5019552;28;20292;-66
2022/09/09 11:36:57;;;;;;;6.10;1.67;;;;;;;;;;5009410;28;20619;-74
2022/09/09 11:39:39;;;;;;;3.45;1.20;;;;;;;;;;5025806;28;20289;-67
2022/09/09 11:42:17;;;;;;;3.65;1.10;;;;;;;;;;5030602;28;20244;-79
2022/09/09 11:44:43;;;;;;;9.13;1.52;;;;;;;;;;5025688;28;20211;-66
2022/09/09 11:47:26;;;;;;;7.13;1.52;;;;;;;;;;5024364;28;20208;-68
2022/09/09 11:49:52;;;;;;;10.23;1.50;;;;;;;;;;5023641;28;20214;-65
2022/09/09 11:52:37;;;;;;;5.30;1.23;;;;;;;;;;5023159;28;20267;-66
2022/09/09 11:55:31;;;;;;;7.65;1.20;;;;;;;;;;5024303;28;20186;-68
2022/09/09 11:58:05;;;;;;;4.03;1.33;;;;;;;;;;5034348;28;20179;-68
2022/09/09 12:00:46;;;;;;;4.00;1.45;;;;;;;;;;5020742;28;20311;-65
2022/09/09 12:03:36;;;;;;;5.97;1.30;;;;;;;;;;5022014;28;20388;-66
2022/09/09 12:06:26;;;;;;;5.63;1.10;;;;;;;;;;5026754;28;20249;-73
2022/09/09 12:08:57;;;;;;;5.40;1.40;;;;;;;;;;5026623;28;20190;-67
2022/09/09 12:11:27;;;;;;;4.85;1.25;;;;;;;;;;5024572;28;20178;-67
2022/09/09 12:14:00;;;;;;;5.25;1.10;;;;;;;;;;5027047;28;20182;-69
2022/09/09 12:16:34;;;;;;;2.33;1.10;;;;;;;;;;5024377;28;20229;-70
2022/09/09 12:19:09;;;;;;;6.07;1.00;;;;;;;;;;5020967;28;20190;-67
2022/09/09 12:21:51;;;;;;;7.30;1.20;;;;;;;;;;5024416;28;20179;-66
2022/09/09 12:24:45;;;;;;;9.18;1.20;;;;;;;;;;5018323;28;20201;-66
2022/09/09 12:27:45;;;;;;;4.93;0.77;;;;;;;;;;5022077;28;20206;-65
2022/09/09 12:30:14;;;;;;;5.97;1.17;;;;;;;;;;5025173;28;20468;-65
2022/09/09 12:32:40;;;;;;;6.45;1.20;;;;;;;;;;5026490;28;20204;-65
2022/09/09 12:35:24;;;;;;;5.10;1.00;;;;;;;;;;5025738;28;20178;-65
2022/09/09 12:38:01;;;;;;;5.63;1.15;;;;;;;;;;5025095;28;20264;-65
2022/09/09 12:40:34;;;;;;;3.90;1.10;;;;;;;;;;5024633;28;20264;-66
2022/09/09 12:43:21;;;;;;;5.55;1.05;;;;;;;;;;5027325;28;20594;-65
2022/09/09 12:45:47;;;;;;;3.55;1.00;;;;;;;;;;5026607;28;20715;-65
2022/09/09 12:48:15;;;;;;;3.65;1.17;;;;;;;;;;5027400;28;20236;-68
2022/09/09 12:50:48;;;;;;;6.75;1.25;;;;;;;;;;5027507;28;20182;-67
2022/09/09 12:53:24;;;;;;;4.68;0.88;;;;;;;;;;5025845;28;20186;-66
2022/09/09 12:56:17;;;;;;;4.53;0.90;;;;;;;;;;5025801;28;20182;-65
2022/09/09 12:58:47;;;;;;;3.75;1.00;;;;;;;;;;5021542;28;20171;-67
2022/09/09 13:01:40;;;;;;;4.07;1.20;;;;;;;;;;5025738;28;20197;-67
2022/09/09 13:04:21;;;;;;;5.43;1.20;;;;;;;;;;5024701;28;20657;-65
2022/09/09 13:06:47;;;;;;;5.63;1.23;;;;;;;;;;5024318;28;20214;-69
2022/09/09 13:09:12;;;;;;;3.72;1.00;;;;;;;;;;5027342;28;20193;-65
2022/09/09 13:11:58;;;;;;;4.28;1.35;;;;;;;;;;5024708;28;20173;-65
2022/09/09 13:14:34;;;;;;;8.73;1.50;;;;;;;;;;5025921;28;20238;-65
2022/09/09 13:17:03;;;;;;;3.42;0.82;;;;;;;;;;5028855;28;20186;-65
2022/09/09 13:19:34;;;;;;;4.55;1.27;;;;;;;;;;5026709;28;20616;-65
2022/09/09 13:21:59;;;;;;;5.85;1.13;;;;;;;;;;5028628;28;20247;-71
2022/09/09 13:24:34;;;;;;;9.80;1.38;;;;;;;;;;5030980;28;20584;-68
2022/09/09 13:27:02;;;;;;;4.25;1.20;;;;;;;;;;5028328;28;20240;-70
2022/09/09 13:29:29;;;;;;;4.28;0.98;;;;;;;;;;5028771;28;20256;-69
2022/09/09 13:32:12;;;;;;;3.15;0.82;;;;;;;;;;5028462;28;20202;-68
2022/09/09 13:34:37;;;;;;;6.82;0.88;;;;;;;;;;5027637;28;20220;-67
2022/09/09 13:37:06;;;;;;;2.95;0.60;;;;;;;;;;5029528;28;20456;-67
2022/09/09 13:39:34;;;;;;;0.90;0.70;;;;;;;;;;5027137;28;20190;-69
2022/09/09 13:42:01;;;;;;;3.47;0.82;;;;;;;;;;5027044;28;20178;-68
2022/09/09 13:44:34;;;;;;;4.05;0.70;;;;;;;;;;5030564;28;20205;-68
2022/09/09 13:47:00;;;;;;;2.50;1.00;;;;;;;;;;5026915;28;20286;-68
2022/09/09 13:49:29;;;;;;;5.53;0.88;;;;;;;;;;5029634;28;20588;-68
2022/09/09 13:52:05;;;;;;;5.72;1.50;;;;;;;;;;5029455;28;20186;-67
2022/09/09 13:54:31;;;;;;;4.80;1.30;;;;;;;;;;5030376;28;20190;-70
2022/09/09 13:56:56;;;;;;;2.80;1.02;;;;;;;;;;5030301;28;20556;-67
2022/09/09 13:59:24;;;;;;;3.95;1.20;;;;;;;;;;5029970;28;20185;-67
2022/09/09 14:01:49;;;;;;;2.53;1.05;;;;;;;;;;5024965;28;20205;-66
2022/09/09 14:04:15;;;;;;;9.18;1.40;;;;;;;;;;5024247;28;20204;-65
2022/09/09 14:06:41;;;;;;;1.83;0.98;;;;;;;;;;5024005;28;20201;-66
2022/09/09 14:09:10;;;;;;;4.22;1.00;;;;;;;;;;5028642;28;20178;-65
2022/09/09 14:11:36;;;;;;;3.17;1.30;;;;;;;;;;5023679;28;20190;-68
2022/09/09 14:14:01;;;;;;;3.70;1.50;;;;;;;;;;5027468;28;20178;-65
2022/09/09 14:16:27;;;;;;;4.75;1.50;;;;;;;;;;5027468;28;20174;-65
2022/09/09 14:18:53;;;;;;;5.05;1.38;;;;;;;;;;5030006;28;20265;-66
2022/09/09 14:21:18;;;;;;;3.25;1.35;;;;;;;;;;5028573;28;20323;-65
2022/09/09 14:23:43;;;;;;;4.72;1.83;;;;;;;;;;5023250;28;20260;-68
2022/09/09 14:26:09;;;;;;;5.60;2.08;;;;;;;;;;5025296;28;20194;-65
2022/09/09 14:28:36;;;;;;;4.60;2.17;;;;;;;;;;5016382;28;20226;-67
2022/09/09 14:31:03;;;;;;;3.80;1.45;;;;;;;;;;5025239;28;20216;-65
2022/09/09 14:33:30;;;;;;;5.13;1.83;;;;;;;;;;5027409;28;20178;-65
2022/09/09 14:36:00;;;;;;;4.38;1.75;;;;;;;;;;5027274;28;20182;-65
2022/09/09 14:38:29;;;;;;;5.80;1.95;;;;;;;;;;5027048;28;20174;-65
2022/09/09 14:40:54;;;;;;;3.70;1.80;;;;;;;;;;5027404;28;20586;-65
2022/09/09 14:43:20;;;;;;;5.95;2.10;;;;;;;;;;5026893;28;20181;-66
2022/09/09 14:45:47;;;;;;;4.22;1.55;;;;;;;;;;5027871;28;20182;-65
2022/09/09 14:48:14;;;;;;;4.43;2.17;;;;;;;;;;5027084;28;20208;-65
2022/09/09 14:50:40;;;;;;;7.72;2.10;;;;;;;;;;5026178;28;20596;-65
2022/09/09 14:53:05;;;;;;;6.20;2.17;;;;;;;;;;5026194;28;20214;-65
2022/09/09 14:55:31;;;;;;;9.20;2.05;;;;;;;;;;5028034;28;20178;-65
2022/09/09 14:57:56;;;;;;;3.33;1.60;;;;;;;;;;5027133;28;20179;-65
2022/09/09 15:00:21;;;;;;;4.93;1.88;;;;;;;;;;5026690;28;20178;-65
2022/09/09 15:02:47;;;;;;;4.55;1.52;;;;;;;;;;5027543;28;20186;-65
2022/09/09 15:05:13;;;;;;;5.38;1.67;;;;;;;;;;5027673;28;20238;-65
2022/09/09 15:07:38;;;;;;;4.82;2.00;;;;;;;;;;5024352;28;20309;-65